sensor_id;sensor_type;location;lat;lon;timestamp;temperature;humidity
13572;DHT22;6857;53.484;10.216;2022-10-22T00:01:31;14.50;99.90
13572;DHT22;6857;53.484;10.216;2022-10-22T00:03:57;14.60;99.90
13572;DHT22;6857;53.484;10.216;2022-10-22T00:06:22;14.60;99.90
13572;DHT22;6857;53.484;10.216;2022-10-22T00:08:48;14.50;99.90
13572;DHT22;6857;53.484;10.216;2022-10-22T00:11:16;14.60;99.90
13572;DHT22;6857;53.484;10.216;2022-10-22T00:13:42;14.50;99.90
13572;DHT22;6857;53.484;10.216;2022-10-22T00:16:08;14.60;99.90
13572;DHT22;6857;53.484;10.216;2022-10-22T00:18:34;14.50;99.90
13572;DHT22;6857;53.484;10.216;2022-10-22T00:21:00;14.50;99.90
13572;DHT22;6857;53.484;10.216;2022-10-22T00:23:25;14.60;99.90
13572;DHT22;6857;53.484;10.216;2022-10-22T00:25:52;14.60;99.90
13572;DHT22;6857;53.484;10.216;2022-10-22T00:28:17;14.60;99.90
13572;DHT22;6857;53.484;10.216;2022-10-22T00:30:43;14.50;99.90
13572;DHT22;6857;53.484;10.216;2022-10-22T00:33:08;14.50;99.90
13572;DHT22;6857;53.484;10.216;2022-10-22T00:35:34;14.50;99.90
13572;DHT22;6857;53.484;10.216;2022-10-22T00:38:01;14.50;99.90
13572;DHT22;6857;53.484;10.216;2022-10-22T00:40:27;14.50;99.90
13572;DHT22;6857;53.484;10.216;2022-10-22T00:42:53;14.50;99.90
13572;DHT22;6857;53.484;10.216;2022-10-22T00:45:28;14.50;99.90
13572;DHT22;6857;53.484;10.216;2022-10-22T00:50:35;14.50;99.90
13572;DHT22;6857;53.484;10.216;2022-10-22T00:53:03;14.60;99.90
13572;DHT22;6857;53.484;10.216;2022-10-22T00:55:30;14.60;99.90
13572;DHT22;6857;53.484;10.216;2022-10-22T00:57:57;14.50;99.90
13572;DHT22;6857;53.484;10.216;2022-10-22T01:00:23;14.60;99.90
13572;DHT22;6857;53.484;10.216;2022-10-22T01:02:49;14.60;99.90
13572;DHT22;6857;53.484;10.216;2022-10-22T01:05:16;14.50;99.90
13572;DHT22;6857;53.484;10.216;2022-10-22T01:07:48;14.50;99.90
13572;DHT22;6857;53.484;10.216;2022-10-22T01:12:54;14.50;99.90
13572;DHT22;6857;53.484;10.216;2022-10-22T01:18:08;14.50;99.90
13572;DHT22;6857;53.484;10.216;2022-10-22T01:20:56;14.60;99.90
13572;DHT22;6857;53.484;10.216;2022-10-22T01:30:03;14.50;99.90
13572;DHT22;6857;53.484;10.216;2022-10-22T01:32:03;14.50;99.90
13572;DHT22;6857;53.484;10.216;2022-10-22T01:34:30;14.40;99.90
13572;DHT22;6857;53.484;10.216;2022-10-22T01:36:58;14.50;99.90
13572;DHT22;6857;53.484;10.216;2022-10-22T01:39:26;14.50;99.90
13572;DHT22;6857;53.484;10.216;2022-10-22T01:41:56;14.40;99.90
13572;DHT22;6857;53.484;10.216;2022-10-22T01:44:35;14.50;99.90
13572;DHT22;6857;53.484;10.216;2022-10-22T04:06:08;13.10;99.90
13572;DHT22;6857;53.484;10.216;2022-10-22T04:08:35;13.10;99.90
13572;DHT22;6857;53.484;10.216;2022-10-22T04:11:01;12.90;99.90
13572;DHT22;6857;53.484;10.216;2022-10-22T04:13:27;12.90;99.90
13572;DHT22;6857;53.484;10.216;2022-10-22T04:15:52;12.90;99.90
13572;DHT22;6857;53.484;10.216;2022-10-22T04:18:19;13.00;99.90
13572;DHT22;6857;53.484;10.216;2022-10-22T04:20:45;13.00;99.90
13572;DHT22;6857;53.484;10.216;2022-10-22T04:23:11;13.10;99.90
13572;DHT22;6857;53.484;10.216;2022-10-22T04:25:37;13.20;99.90
13572;DHT22;6857;53.484;10.216;2022-10-22T04:28:05;13.10;99.90
13572;DHT22;6857;53.484;10.216;2022-10-22T04:30:32;13.30;99.90
13572;DHT22;6857;53.484;10.216;2022-10-22T04:32:58;13.30;99.90
13572;DHT22;6857;53.484;10.216;2022-10-22T04:35:23;13.30;99.90
13572;DHT22;6857;53.484;10.216;2022-10-22T04:37:49;13.30;99.90
13572;DHT22;6857;53.484;10.216;2022-10-22T04:40:14;13.30;99.90
13572;DHT22;6857;53.484;10.216;2022-10-22T04:42:40;13.30;99.90
13572;DHT22;6857;53.484;10.216;2022-10-22T04:45:06;13.40;99.90
13572;DHT22;6857;53.484;10.216;2022-10-22T04:47:31;13.40;99.90
13572;DHT22;6857;53.484;10.216;2022-10-22T04:49:57;13.30;99.90
13572;DHT22;6857;53.484;10.216;2022-10-22T04:52:23;13.40;99.90
13572;DHT22;6857;53.484;10.216;2022-10-22T04:54:48;13.30;99.90
13572;DHT22;6857;53.484;10.216;2022-10-22T04:57:14;13.70;99.90
13572;DHT22;6857;53.484;10.216;2022-10-22T04:59:39;13.50;99.90
13572;DHT22;6857;53.484;10.216;2022-10-22T05:02:05;13.30;99.90
13572;DHT22;6857;53.484;10.216;2022-10-22T05:04:30;13.30;99.90
13572;DHT22;6857;53.484;10.216;2022-10-22T05:06:56;13.30;99.90
13572;DHT22;6857;53.484;10.216;2022-10-22T05:09:22;13.30;99.90
13572;DHT22;6857;53.484;10.216;2022-10-22T05:11:50;13.30;99.90
13572;DHT22;6857;53.484;10.216;2022-10-22T05:14:21;13.20;99.90
13572;DHT22;6857;53.484;10.216;2022-10-22T05:16:47;13.20;99.90
13572;DHT22;6857;53.484;10.216;2022-10-22T05:19:22;13.20;99.90
13572;DHT22;6857;53.484;10.216;2022-10-22T05:21:52;13.10;99.90
13572;DHT22;6857;53.484;10.216;2022-10-22T05:24:17;13.10;99.90
13572;DHT22;6857;53.484;10.216;2022-10-22T05:29:09;13.00;99.90
13572;DHT22;6857;53.484;10.216;2022-10-22T05:31:35;13.10;99.90
13572;DHT22;6857;53.484;10.216;2022-10-22T05:34:01;13.10;99.90
13572;DHT22;6857;53.484;10.216;2022-10-22T05:36:27;13.00;99.90
13572;DHT22;6857;53.484;10.216;2022-10-22T05:38:53;13.00;99.90
13572;DHT22;6857;53.484;10.216;2022-10-22T05:41:21;12.80;99.90
13572;DHT22;6857;53.484;10.216;2022-10-22T05:43:47;12.70;99.90
13572;DHT22;6857;53.484;10.216;2022-10-22T05:46:19;12.70;99.90
13572;DHT22;6857;53.484;10.216;2022-10-22T05:48:50;12.60;99.90
13572;DHT22;6857;53.484;10.216;2022-10-22T05:51:16;12.50;99.90
13572;DHT22;6857;53.484;10.216;2022-10-22T05:53:42;12.50;99.90
13572;DHT22;6857;53.484;10.216;2022-10-22T05:56:14;12.50;99.90
13572;DHT22;6857;53.484;10.216;2022-10-22T05:58:40;12.60;99.90
13572;DHT22;6857;53.484;10.216;2022-10-22T06:01:10;12.50;99.90
13572;DHT22;6857;53.484;10.216;2022-10-22T06:03:36;12.50;99.90
13572;DHT22;6857;53.484;10.216;2022-10-22T06:06:06;12.50;99.90
13572;DHT22;6857;53.484;10.216;2022-10-22T06:08:36;12.50;99.90
13572;DHT22;6857;53.484;10.216;2022-10-22T06:11:02;12.50;99.90
13572;DHT22;6857;53.484;10.216;2022-10-22T06:13:27;12.40;99.90
13572;DHT22;6857;53.484;10.216;2022-10-22T06:15:53;12.40;99.90
13572;DHT22;6857;53.484;10.216;2022-10-22T06:18:19;12.40;99.90
13572;DHT22;6857;53.484;10.216;2022-10-22T06:20:44;12.20;99.90
13572;DHT22;6857;53.484;10.216;2022-10-22T06:23:11;12.30;99.90
13572;DHT22;6857;53.484;10.216;2022-10-22T06:25:37;12.20;99.90
13572;DHT22;6857;53.484;10.216;2022-10-22T06:28:03;12.30;99.90
13572;DHT22;6857;53.484;10.216;2022-10-22T06:30:28;12.20;99.90
13572;DHT22;6857;53.484;10.216;2022-10-22T06:32:55;12.10;99.90
13572;DHT22;6857;53.484;10.216;2022-10-22T06:35:20;12.10;99.90
13572;DHT22;6857;53.484;10.216;2022-10-22T06:37:46;12.10;99.90
13572;DHT22;6857;53.484;10.216;2022-10-22T06:40:12;12.20;99.90
13572;DHT22;6857;53.484;10.216;2022-10-22T06:42:37;12.10;99.90
13572;DHT22;6857;53.484;10.216;2022-10-22T06:45:03;12.10;99.90
13572;DHT22;6857;53.484;10.216;2022-10-22T06:47:29;12.00;99.90
13572;DHT22;6857;53.484;10.216;2022-10-22T06:49:57;12.10;99.90
13572;DHT22;6857;53.484;10.216;2022-10-22T06:52:23;12.20;99.90
13572;DHT22;6857;53.484;10.216;2022-10-22T06:54:48;12.20;99.90
13572;DHT22;6857;53.484;10.216;2022-10-22T06:57:14;12.10;99.90
13572;DHT22;6857;53.484;10.216;2022-10-22T06:59:40;12.10;99.90
13572;DHT22;6857;53.484;10.216;2022-10-22T07:02:05;12.10;99.90
13572;DHT22;6857;53.484;10.216;2022-10-22T07:04:31;12.10;99.90
13572;DHT22;6857;53.484;10.216;2022-10-22T07:06:57;12.10;99.90
13572;DHT22;6857;53.484;10.216;2022-10-22T07:09:22;12.10;99.90
13572;DHT22;6857;53.484;10.216;2022-10-22T07:11:48;12.10;99.90
13572;DHT22;6857;53.484;10.216;2022-10-22T07:14:14;12.10;99.90
13572;DHT22;6857;53.484;10.216;2022-10-22T07:16:40;12.10;99.90
13572;DHT22;6857;53.484;10.216;2022-10-22T07:19:09;12.10;99.90
13572;DHT22;6857;53.484;10.216;2022-10-22T07:21:35;12.10;99.90
13572;DHT22;6857;53.484;10.216;2022-10-22T07:24:01;12.20;99.90
13572;DHT22;6857;53.484;10.216;2022-10-22T07:26:27;12.20;99.90
13572;DHT22;6857;53.484;10.216;2022-10-22T07:28:55;12.20;99.90
13572;DHT22;6857;53.484;10.216;2022-10-22T07:31:21;12.20;99.90
13572;DHT22;6857;53.484;10.216;2022-10-22T07:33:47;12.30;99.90
13572;DHT22;6857;53.484;10.216;2022-10-22T07:36:14;12.40;99.90
13572;DHT22;6857;53.484;10.216;2022-10-22T07:38:43;12.40;99.90
13572;DHT22;6857;53.484;10.216;2022-10-22T07:41:09;12.40;99.90
13572;DHT22;6857;53.484;10.216;2022-10-22T07:43:35;12.50;99.90
13572;DHT22;6857;53.484;10.216;2022-10-22T07:46:01;12.60;99.90
13572;DHT22;6857;53.484;10.216;2022-10-22T07:48:27;12.50;99.90
13572;DHT22;6857;53.484;10.216;2022-10-22T07:50:53;12.60;99.90
13572;DHT22;6857;53.484;10.216;2022-10-22T07:53:19;12.70;99.90
13572;DHT22;6857;53.484;10.216;2022-10-22T07:55:49;12.70;99.90
13572;DHT22;6857;53.484;10.216;2022-10-22T07:58:16;12.80;99.90
13572;DHT22;6857;53.484;10.216;2022-10-22T08:00:42;13.00;99.90
13572;DHT22;6857;53.484;10.216;2022-10-22T08:03:12;13.20;99.90
13572;DHT22;6857;53.484;10.216;2022-10-22T08:05:38;13.30;99.90
13572;DHT22;6857;53.484;10.216;2022-10-22T08:08:07;13.50;99.90
13572;DHT22;6857;53.484;10.216;2022-10-22T08:10:32;13.60;99.90
13572;DHT22;6857;53.484;10.216;2022-10-22T08:12:59;13.80;99.90
13572;DHT22;6857;53.484;10.216;2022-10-22T08:15:24;13.90;99.90
13572;DHT22;6857;53.484;10.216;2022-10-22T08:17:51;14.00;99.90
13572;DHT22;6857;53.484;10.216;2022-10-22T08:20:18;14.10;99.90
13572;DHT22;6857;53.484;10.216;2022-10-22T08:22:44;14.20;99.90
13572;DHT22;6857;53.484;10.216;2022-10-22T08:25:10;14.30;99.90
13572;DHT22;6857;53.484;10.216;2022-10-22T08:27:36;14.20;99.90
13572;DHT22;6857;53.484;10.216;2022-10-22T08:30:03;14.40;99.90
13572;DHT22;6857;53.484;10.216;2022-10-22T08:32:29;14.50;99.90
13572;DHT22;6857;53.484;10.216;2022-10-22T08:34:55;14.70;99.90
13572;DHT22;6857;53.484;10.216;2022-10-22T08:37:20;14.60;99.90
13572;DHT22;6857;53.484;10.216;2022-10-22T08:39:46;14.70;99.90
13572;DHT22;6857;53.484;10.216;2022-10-22T08:42:35;14.80;99.90
13572;DHT22;6857;53.484;10.216;2022-10-22T08:48:01;15.10;99.90
13572;DHT22;6857;53.484;10.216;2022-10-22T08:50:36;15.20;99.90
13572;DHT22;6857;53.484;10.216;2022-10-22T08:53:10;15.00;99.90
13572;DHT22;6857;53.484;10.216;2022-10-22T08:55:37;15.30;99.90
13572;DHT22;6857;53.484;10.216;2022-10-22T08:58:18;15.40;99.90
13572;DHT22;6857;53.484;10.216;2022-10-22T09:00:54;15.30;99.90
13572;DHT22;6857;53.484;10.216;2022-10-22T09:03:53;15.60;99.90
13572;DHT22;6857;53.484;10.216;2022-10-22T09:06:25;15.60;99.90
13572;DHT22;6857;53.484;10.216;2022-10-22T09:08:51;15.50;99.90
13572;DHT22;6857;53.484;10.216;2022-10-22T09:11:29;15.60;99.90
13572;DHT22;6857;53.484;10.216;2022-10-22T09:13:56;15.70;99.90
13572;DHT22;6857;53.484;10.216;2022-10-22T09:24:27;16.00;99.90
13572;DHT22;6857;53.484;10.216;2022-10-22T09:26:55;16.10;99.90
13572;DHT22;6857;53.484;10.216;2022-10-22T09:29:26;16.10;99.90
13572;DHT22;6857;53.484;10.216;2022-10-22T09:31:54;16.10;99.90
13572;DHT22;6857;53.484;10.216;2022-10-22T09:34:20;16.10;99.90
13572;DHT22;6857;53.484;10.216;2022-10-22T09:36:46;16.20;99.90
13572;DHT22;6857;53.484;10.216;2022-10-22T09:39:22;16.30;99.90
13572;DHT22;6857;53.484;10.216;2022-10-22T09:41:48;16.30;99.90
13572;DHT22;6857;53.484;10.216;2022-10-22T09:44:14;16.50;99.90
13572;DHT22;6857;53.484;10.216;2022-10-22T09:46:39;16.60;99.90
13572;DHT22;6857;53.484;10.216;2022-10-22T09:49:13;16.80;99.90
13572;DHT22;6857;53.484;10.216;2022-10-22T09:54:25;16.80;99.90
13572;DHT22;6857;53.484;10.216;2022-10-22T09:57:02;16.80;99.90
13572;DHT22;6857;53.484;10.216;2022-10-22T09:59:32;16.90;99.90
13572;DHT22;6857;53.484;10.216;2022-10-22T10:02:01;16.90;99.90
13572;DHT22;6857;53.484;10.216;2022-10-22T10:04:33;17.00;99.90
13572;DHT22;6857;53.484;10.216;2022-10-22T10:06:58;17.10;99.90
13572;DHT22;6857;53.484;10.216;2022-10-22T10:09:25;17.20;99.90
13572;DHT22;6857;53.484;10.216;2022-10-22T10:11:54;17.10;99.90
13572;DHT22;6857;53.484;10.216;2022-10-22T10:14:47;17.10;99.90
13572;DHT22;6857;53.484;10.216;2022-10-22T10:22:52;17.20;99.90
13572;DHT22;6857;53.484;10.216;2022-10-22T10:26:05;17.20;99.90
13572;DHT22;6857;53.484;10.216;2022-10-22T10:31:41;17.80;99.90
13572;DHT22;6857;53.484;10.216;2022-10-22T10:34:18;17.90;99.90
13572;DHT22;6857;53.484;10.216;2022-10-22T10:37:21;18.10;99.90
13572;DHT22;6857;53.484;10.216;2022-10-22T10:40:13;18.30;99.90
13572;DHT22;6857;53.484;10.216;2022-10-22T10:42:45;18.40;99.90
13572;DHT22;6857;53.484;10.216;2022-10-22T10:45:30;18.40;99.90
13572;DHT22;6857;53.484;10.216;2022-10-22T10:54:12;18.30;99.90
13572;DHT22;6857;53.484;10.216;2022-10-22T10:56:44;18.20;99.90
13572;DHT22;6857;53.484;10.216;2022-10-22T10:59:52;18.30;99.90
13572;DHT22;6857;53.484;10.216;2022-10-22T11:40:37;18.70;99.90
13572;DHT22;6857;53.484;10.216;2022-10-22T11:43:06;18.80;99.90
13572;DHT22;6857;53.484;10.216;2022-10-22T11:45:40;18.80;99.90
13572;DHT22;6857;53.484;10.216;2022-10-22T11:50:48;18.60;99.90
13572;DHT22;6857;53.484;10.216;2022-10-22T11:53:33;18.70;99.90
13572;DHT22;6857;53.484;10.216;2022-10-22T11:56:20;18.80;99.90
13572;DHT22;6857;53.484;10.216;2022-10-22T11:58:47;18.80;99.90
13572;DHT22;6857;53.484;10.216;2022-10-22T12:01:20;18.80;99.90
13572;DHT22;6857;53.484;10.216;2022-10-22T12:04:16;18.90;99.90
13572;DHT22;6857;53.484;10.216;2022-10-22T12:06:56;18.90;99.90
13572;DHT22;6857;53.484;10.216;2022-10-22T12:09:24;18.90;99.90
13572;DHT22;6857;53.484;10.216;2022-10-22T12:11:54;19.10;99.90
13572;DHT22;6857;53.484;10.216;2022-10-22T12:17:11;19.00;99.90
13572;DHT22;6857;53.484;10.216;2022-10-22T12:19:50;19.00;99.90
13572;DHT22;6857;53.484;10.216;2022-10-22T12:22:20;19.10;99.90
13572;DHT22;6857;53.484;10.216;2022-10-22T12:24:49;19.00;99.90
13572;DHT22;6857;53.484;10.216;2022-10-22T12:27:27;19.30;99.90
13572;DHT22;6857;53.484;10.216;2022-10-22T12:29:58;19.90;99.90
13572;DHT22;6857;53.484;10.216;2022-10-22T12:32:38;20.30;99.90
13572;DHT22;6857;53.484;10.216;2022-10-22T12:35:17;20.50;99.90
13572;DHT22;6857;53.484;10.216;2022-10-22T12:37:44;20.60;99.90
13572;DHT22;6857;53.484;10.216;2022-10-22T12:40:21;20.30;99.90
13572;DHT22;6857;53.484;10.216;2022-10-22T12:45:14;20.30;99.90
13572;DHT22;6857;53.484;10.216;2022-10-22T12:47:47;20.20;99.90
13572;DHT22;6857;53.484;10.216;2022-10-22T12:50:20;19.90;99.90
13572;DHT22;6857;53.484;10.216;2022-10-22T12:52:47;19.60;99.90
13572;DHT22;6857;53.484;10.216;2022-10-22T12:55:17;19.30;99.90
13572;DHT22;6857;53.484;10.216;2022-10-22T12:57:46;19.10;99.90
13572;DHT22;6857;53.484;10.216;2022-10-22T13:00:24;19.20;99.90
13572;DHT22;6857;53.484;10.216;2022-10-22T13:02:51;19.10;99.90
13572;DHT22;6857;53.484;10.216;2022-10-22T13:05:25;19.20;99.90
13572;DHT22;6857;53.484;10.216;2022-10-22T13:08:00;19.30;99.90
13572;DHT22;6857;53.484;10.216;2022-10-22T13:10:33;19.10;99.90
13572;DHT22;6857;53.484;10.216;2022-10-22T13:18:14;19.40;99.90
13572;DHT22;6857;53.484;10.216;2022-10-22T13:21:01;19.50;99.90
13572;DHT22;6857;53.484;10.216;2022-10-22T13:23:30;19.30;99.90
13572;DHT22;6857;53.484;10.216;2022-10-22T13:26:08;19.20;99.90
13572;DHT22;6857;53.484;10.216;2022-10-22T13:28:36;19.10;99.90
13572;DHT22;6857;53.484;10.216;2022-10-22T13:31:16;19.20;99.90
13572;DHT22;6857;53.484;10.216;2022-10-22T13:33:46;19.20;99.90
13572;DHT22;6857;53.484;10.216;2022-10-22T13:36:15;19.20;99.90
13572;DHT22;6857;53.484;10.216;2022-10-22T13:38:42;19.30;99.90
13572;DHT22;6857;53.484;10.216;2022-10-22T13:43:44;19.00;99.90
13572;DHT22;6857;53.484;10.216;2022-10-22T13:46:09;18.90;99.90
13572;DHT22;6857;53.484;10.216;2022-10-22T13:48:35;19.00;99.90
13572;DHT22;6857;53.484;10.216;2022-10-22T13:51:01;19.10;99.90
13572;DHT22;6857;53.484;10.216;2022-10-22T13:53:27;19.10;99.90
13572;DHT22;6857;53.484;10.216;2022-10-22T13:55:53;19.50;99.90
13572;DHT22;6857;53.484;10.216;2022-10-22T13:58:21;19.80;99.90
13572;DHT22;6857;53.484;10.216;2022-10-22T14:00:52;20.20;99.90
13572;DHT22;6857;53.484;10.216;2022-10-22T14:03:22;20.30;99.90
13572;DHT22;6857;53.484;10.216;2022-10-22T14:05:48;20.40;99.90
13572;DHT22;6857;53.484;10.216;2022-10-22T14:08:16;20.20;99.90
13572;DHT22;6857;53.484;10.216;2022-10-22T14:10:43;19.90;99.90
13572;DHT22;6857;53.484;10.216;2022-10-22T14:13:10;19.70;99.90
13572;DHT22;6857;53.484;10.216;2022-10-22T14:15:36;19.60;99.90
13572;DHT22;6857;53.484;10.216;2022-10-22T14:18:03;19.50;99.90
13572;DHT22;6857;53.484;10.216;2022-10-22T14:20:31;19.40;99.90
13572;DHT22;6857;53.484;10.216;2022-10-22T14:23:04;19.50;99.90
13572;DHT22;6857;53.484;10.216;2022-10-22T14:25:32;19.50;99.90
13572;DHT22;6857;53.484;10.216;2022-10-22T14:27:57;19.40;99.90
13572;DHT22;6857;53.484;10.216;2022-10-22T14:30:26;19.30;99.90
13572;DHT22;6857;53.484;10.216;2022-10-22T14:32:53;19.20;99.90
13572;DHT22;6857;53.484;10.216;2022-10-22T14:35:21;19.10;99.90
13572;DHT22;6857;53.484;10.216;2022-10-22T14:37:47;19.10;99.90
13572;DHT22;6857;53.484;10.216;2022-10-22T14:40:17;19.20;99.90
13572;DHT22;6857;53.484;10.216;2022-10-22T14:42:44;19.10;99.90
13572;DHT22;6857;53.484;10.216;2022-10-22T14:45:20;19.20;99.90
13572;DHT22;6857;53.484;10.216;2022-10-22T14:47:47;19.20;99.90
13572;DHT22;6857;53.484;10.216;2022-10-22T14:50:13;19.10;99.90
13572;DHT22;6857;53.484;10.216;2022-10-22T14:52:39;19.20;99.90
13572;DHT22;6857;53.484;10.216;2022-10-22T14:55:08;19.20;99.90
13572;DHT22;6857;53.484;10.216;2022-10-22T14:57:34;19.10;99.90
13572;DHT22;6857;53.484;10.216;2022-10-22T15:00:00;19.00;99.90
13572;DHT22;6857;53.484;10.216;2022-10-22T15:02:25;18.90;99.90
13572;DHT22;6857;53.484;10.216;2022-10-22T15:04:51;18.90;99.90
13572;DHT22;6857;53.484;10.216;2022-10-22T15:07:16;18.80;99.90
13572;DHT22;6857;53.484;10.216;2022-10-22T15:09:42;18.80;99.90
13572;DHT22;6857;53.484;10.216;2022-10-22T15:12:07;18.70;99.90
13572;DHT22;6857;53.484;10.216;2022-10-22T15:14:33;18.60;99.90
13572;DHT22;6857;53.484;10.216;2022-10-22T15:16:59;18.60;99.90
13572;DHT22;6857;53.484;10.216;2022-10-22T15:19:25;18.40;99.90
13572;DHT22;6857;53.484;10.216;2022-10-22T15:21:50;18.30;99.90
13572;DHT22;6857;53.484;10.216;2022-10-22T15:24:16;18.20;99.90
13572;DHT22;6857;53.484;10.216;2022-10-22T15:26:41;18.20;99.90
13572;DHT22;6857;53.484;10.216;2022-10-22T15:29:07;18.20;99.90
13572;DHT22;6857;53.484;10.216;2022-10-22T15:34:09;18.00;99.90
13572;DHT22;6857;53.484;10.216;2022-10-22T15:36:35;18.00;99.90
13572;DHT22;6857;53.484;10.216;2022-10-22T15:39:06;18.00;99.90
13572;DHT22;6857;53.484;10.216;2022-10-22T15:41:32;18.00;99.90
13572;DHT22;6857;53.484;10.216;2022-10-22T15:43:57;17.90;99.90
13572;DHT22;6857;53.484;10.216;2022-10-22T15:46:23;17.90;99.90
13572;DHT22;6857;53.484;10.216;2022-10-22T15:48:51;17.80;99.90
13572;DHT22;6857;53.484;10.216;2022-10-22T15:51:18;17.80;99.90
13572;DHT22;6857;53.484;10.216;2022-10-22T15:53:50;17.80;99.90
13572;DHT22;6857;53.484;10.216;2022-10-22T15:56:16;17.60;99.90
13572;DHT22;6857;53.484;10.216;2022-10-22T15:58:41;17.00;99.90
13572;DHT22;6857;53.484;10.216;2022-10-22T16:01:09;16.90;99.90
13572;DHT22;6857;53.484;10.216;2022-10-22T16:03:35;16.60;99.90
13572;DHT22;6857;53.484;10.216;2022-10-22T16:08:27;15.80;99.90
13572;DHT22;6857;53.484;10.216;2022-10-22T16:10:53;15.70;99.90
13572;DHT22;6857;53.484;10.216;2022-10-22T16:13:19;15.60;99.90
13572;DHT22;6857;53.484;10.216;2022-10-22T16:15:46;15.50;99.90
13572;DHT22;6857;53.484;10.216;2022-10-22T16:18:12;15.30;99.90
13572;DHT22;6857;53.484;10.216;2022-10-22T16:20:38;15.40;99.90
13572;DHT22;6857;53.484;10.216;2022-10-22T16:23:04;15.40;99.90
13572;DHT22;6857;53.484;10.216;2022-10-22T16:25:30;15.30;99.90
13572;DHT22;6857;53.484;10.216;2022-10-22T16:27:55;15.30;99.90
13572;DHT22;6857;53.484;10.216;2022-10-22T16:30:21;15.10;99.90
13572;DHT22;6857;53.484;10.216;2022-10-22T16:32:46;15.20;99.90
13572;DHT22;6857;53.484;10.216;2022-10-22T16:35:12;15.10;99.90
13572;DHT22;6857;53.484;10.216;2022-10-22T16:37:37;15.20;99.90
13572;DHT22;6857;53.484;10.216;2022-10-22T16:40:03;15.10;99.90
13572;DHT22;6857;53.484;10.216;2022-10-22T16:42:29;15.30;99.90
13572;DHT22;6857;53.484;10.216;2022-10-22T16:44:54;15.10;99.90
13572;DHT22;6857;53.484;10.216;2022-10-22T16:47:20;15.00;99.90
13572;DHT22;6857;53.484;10.216;2022-10-22T16:49:46;15.00;99.90
13572;DHT22;6857;53.484;10.216;2022-10-22T16:52:11;15.00;99.90
13572;DHT22;6857;53.484;10.216;2022-10-22T16:54:37;15.00;99.90
13572;DHT22;6857;53.484;10.216;2022-10-22T16:57:02;14.90;99.90
13572;DHT22;6857;53.484;10.216;2022-10-22T16:59:28;15.00;99.90
13572;DHT22;6857;53.484;10.216;2022-10-22T17:01:54;15.00;99.90
13572;DHT22;6857;53.484;10.216;2022-10-22T17:04:19;15.00;99.90
13572;DHT22;6857;53.484;10.216;2022-10-22T17:06:46;14.90;99.90
13572;DHT22;6857;53.484;10.216;2022-10-22T17:09:12;14.90;99.90
13572;DHT22;6857;53.484;10.216;2022-10-22T17:11:37;14.90;99.90
13572;DHT22;6857;53.484;10.216;2022-10-22T17:14:03;14.90;99.90
13572;DHT22;6857;53.484;10.216;2022-10-22T17:16:29;14.90;99.90
13572;DHT22;6857;53.484;10.216;2022-10-22T17:18:55;15.10;99.90
13572;DHT22;6857;53.484;10.216;2022-10-22T17:21:21;14.80;99.90
13572;DHT22;6857;53.484;10.216;2022-10-22T17:23:47;14.90;99.90
13572;DHT22;6857;53.484;10.216;2022-10-22T17:26:17;14.80;99.90
13572;DHT22;6857;53.484;10.216;2022-10-22T17:28:44;14.80;99.90
13572;DHT22;6857;53.484;10.216;2022-10-22T17:31:31;14.90;99.90
13572;DHT22;6857;53.484;10.216;2022-10-22T17:33:57;14.80;99.90
13572;DHT22;6857;53.484;10.216;2022-10-22T17:36:26;14.80;99.90
13572;DHT22;6857;53.484;10.216;2022-10-22T17:38:53;14.80;99.90
13572;DHT22;6857;53.484;10.216;2022-10-22T17:41:21;14.80;99.90
13572;DHT22;6857;53.484;10.216;2022-10-22T17:43:47;14.90;99.90
13572;DHT22;6857;53.484;10.216;2022-10-22T17:46:19;14.80;99.90
13572;DHT22;6857;53.484;10.216;2022-10-22T17:49:03;14.80;99.90
13572;DHT22;6857;53.484;10.216;2022-10-22T17:51:30;14.80;99.90
13572;DHT22;6857;53.484;10.216;2022-10-22T17:53:56;14.80;99.90
13572;DHT22;6857;53.484;10.216;2022-10-22T17:56:26;14.80;99.90
13572;DHT22;6857;53.484;10.216;2022-10-22T17:58:52;14.80;99.90
13572;DHT22;6857;53.484;10.216;2022-10-22T18:01:23;14.80;99.90
13572;DHT22;6857;53.484;10.216;2022-10-22T18:03:53;14.80;99.90
13572;DHT22;6857;53.484;10.216;2022-10-22T18:06:20;14.80;99.90
13572;DHT22;6857;53.484;10.216;2022-10-22T18:08:46;14.80;99.90
13572;DHT22;6857;53.484;10.216;2022-10-22T18:11:16;14.50;99.90
13572;DHT22;6857;53.484;10.216;2022-10-22T18:13:41;14.90;99.90
13572;DHT22;6857;53.484;10.216;2022-10-22T18:16:07;15.00;99.90
13572;DHT22;6857;53.484;10.216;2022-10-22T18:18:34;14.90;99.90
13572;DHT22;6857;53.484;10.216;2022-10-22T18:21:00;14.90;99.90
13572;DHT22;6857;53.484;10.216;2022-10-22T18:23:26;14.90;99.90
13572;DHT22;6857;53.484;10.216;2022-10-22T18:25:51;14.90;99.90
13572;DHT22;6857;53.484;10.216;2022-10-22T18:28:18;14.90;99.90
13572;DHT22;6857;53.484;10.216;2022-10-22T18:30:45;14.80;99.90
13572;DHT22;6857;53.484;10.216;2022-10-22T18:33:15;14.90;99.90
13572;DHT22;6857;53.484;10.216;2022-10-22T18:35:41;15.00;99.90
13572;DHT22;6857;53.484;10.216;2022-10-22T18:38:08;15.00;99.90
13572;DHT22;6857;53.484;10.216;2022-10-22T18:40:34;15.10;99.90
13572;DHT22;6857;53.484;10.216;2022-10-22T18:43:03;15.10;99.90
13572;DHT22;6857;53.484;10.216;2022-10-22T18:45:29;15.10;99.90
13572;DHT22;6857;53.484;10.216;2022-10-22T18:47:54;15.10;99.90
13572;DHT22;6857;53.484;10.216;2022-10-22T18:50:20;15.10;99.90
13572;DHT22;6857;53.484;10.216;2022-10-22T18:52:45;15.00;99.90
13572;DHT22;6857;53.484;10.216;2022-10-22T18:57:37;15.00;99.90
13572;DHT22;6857;53.484;10.216;2022-10-22T19:02:29;14.90;99.90
13572;DHT22;6857;53.484;10.216;2022-10-22T19:04:55;15.00;99.90
13572;DHT22;6857;53.484;10.216;2022-10-22T19:07:20;15.00;99.90
13572;DHT22;6857;53.484;10.216;2022-10-22T19:09:46;14.90;99.90
13572;DHT22;6857;53.484;10.216;2022-10-22T19:12:11;14.90;99.90
13572;DHT22;6857;53.484;10.216;2022-10-22T19:14:39;14.90;99.90
13572;DHT22;6857;53.484;10.216;2022-10-22T19:17:06;14.90;99.90
13572;DHT22;6857;53.484;10.216;2022-10-22T19:19:31;14.90;99.90
13572;DHT22;6857;53.484;10.216;2022-10-22T19:21:57;14.90;99.90
13572;DHT22;6857;53.484;10.216;2022-10-22T19:24:24;14.80;99.90
13572;DHT22;6857;53.484;10.216;2022-10-22T19:26:50;14.80;99.90
13572;DHT22;6857;53.484;10.216;2022-10-22T19:29:18;14.80;99.90
13572;DHT22;6857;53.484;10.216;2022-10-22T19:31:44;14.60;99.90
13572;DHT22;6857;53.484;10.216;2022-10-22T19:34:10;14.40;99.90
13572;DHT22;6857;53.484;10.216;2022-10-22T19:36:36;14.50;99.90
13572;DHT22;6857;53.484;10.216;2022-10-22T19:39:02;14.50;99.90
13572;DHT22;6857;53.484;10.216;2022-10-22T19:41:29;14.60;99.90
13572;DHT22;6857;53.484;10.216;2022-10-22T19:43:56;14.40;99.90
13572;DHT22;6857;53.484;10.216;2022-10-22T19:46:23;14.40;99.90